sensor_id;sensor_type;location;lat;lon;timestamp;temperature;humidity
39675;DHT22;27790;50.840;4.386;2022-09-21T00:00:48;12.60;96.00
39675;DHT22;27790;50.840;4.386;2022-09-21T00:03:14;12.60;96.00
39675;DHT22;27790;50.840;4.386;2022-09-21T00:05:40;12.60;96.00
39675;DHT22;27790;50.840;4.386;2022-09-21T00:08:07;12.60;96.00
39675;DHT22;27790;50.840;4.386;2022-09-21T00:10:33;12.60;96.00
39675;DHT22;27790;50.840;4.386;2022-09-21T00:13:00;12.60;96.00
39675;DHT22;27790;50.840;4.386;2022-09-21T00:15:29;12.60;96.00
39675;DHT22;27790;50.840;4.386;2022-09-21T00:17:56;12.50;96.00
39675;DHT22;27790;50.840;4.386;2022-09-21T00:20:23;12.50;96.00
39675;DHT22;27790;50.840;4.386;2022-09-21T00:22:50;12.50;96.00
39675;DHT22;27790;50.840;4.386;2022-09-21T00:25:16;12.50;96.10
39675;DHT22;27790;50.840;4.386;2022-09-21T00:27:42;12.40;96.20
39675;DHT22;27790;50.840;4.386;2022-09-21T00:30:08;12.40;96.20
39675;DHT22;27790;50.840;4.386;2022-09-21T00:32:36;12.40;96.30
39675;DHT22;27790;50.840;4.386;2022-09-21T00:35:03;12.40;96.30
39675;DHT22;27790;50.840;4.386;2022-09-21T00:37:29;12.30;96.40
39675;DHT22;27790;50.840;4.386;2022-09-21T00:39:55;12.30;96.40
39675;DHT22;27790;50.840;4.386;2022-09-21T00:42:26;12.30;96.50
39675;DHT22;27790;50.840;4.386;2022-09-21T00:44:52;12.30;96.50
39675;DHT22;27790;50.840;4.386;2022-09-21T00:50:04;12.30;96.60
39675;DHT22;27790;50.840;4.386;2022-09-21T00:52:33;12.30;96.60
39675;DHT22;27790;50.840;4.386;2022-09-21T00:55:07;12.30;96.70
39675;DHT22;27790;50.840;4.386;2022-09-21T00:57:35;12.20;96.70
39675;DHT22;27790;50.840;4.386;2022-09-21T01:00:05;12.30;96.70
39675;DHT22;27790;50.840;4.386;2022-09-21T01:02:33;12.30;96.70
39675;DHT22;27790;50.840;4.386;2022-09-21T01:04:59;12.30;96.70
39675;DHT22;27790;50.840;4.386;2022-09-21T01:07:28;12.30;96.80
39675;DHT22;27790;50.840;4.386;2022-09-21T01:09:58;12.20;96.80
39675;DHT22;27790;50.840;4.386;2022-09-21T01:12:44;12.20;96.80
39675;DHT22;27790;50.840;4.386;2022-09-21T01:31:04;12.10;97.00
39675;DHT22;27790;50.840;4.386;2022-09-21T01:33:35;12.10;97.00
39675;DHT22;27790;50.840;4.386;2022-09-21T01:36:08;12.10;97.10
39675;DHT22;27790;50.840;4.386;2022-09-21T01:38:39;12.10;97.10
39675;DHT22;27790;50.840;4.386;2022-09-21T01:41:07;12.10;97.10
39675;DHT22;27790;50.840;4.386;2022-09-21T01:43:37;12.10;97.10
39675;DHT22;27790;50.840;4.386;2022-09-21T01:46:08;12.00;97.10
39675;DHT22;27790;50.840;4.386;2022-09-21T01:48:38;12.00;97.10
39675;DHT22;27790;50.840;4.386;2022-09-21T01:51:08;12.00;97.20
39675;DHT22;27790;50.840;4.386;2022-09-21T01:53:44;12.00;97.20
39675;DHT22;27790;50.840;4.386;2022-09-21T01:56:17;12.00;97.20
39675;DHT22;27790;50.840;4.386;2022-09-21T02:01:44;12.00;97.20
39675;DHT22;27790;50.840;4.386;2022-09-21T02:04:12;11.90;97.20
39675;DHT22;27790;50.840;4.386;2022-09-21T02:06:42;11.90;97.40
39675;DHT22;27790;50.840;4.386;2022-09-21T02:09:10;11.90;97.40
39675;DHT22;27790;50.840;4.386;2022-09-21T02:11:36;11.90;97.40
39675;DHT22;27790;50.840;4.386;2022-09-21T02:14:11;11.90;97.30
39675;DHT22;27790;50.840;4.386;2022-09-21T02:19:30;11.90;97.30
39675;DHT22;27790;50.840;4.386;2022-09-21T02:24:52;11.90;97.30
39675;DHT22;27790;50.840;4.386;2022-09-21T02:32:49;11.80;97.20
39675;DHT22;27790;50.840;4.386;2022-09-21T02:38:08;11.80;97.40
39675;DHT22;27790;50.840;4.386;2022-09-21T02:40:40;11.80;97.40
39675;DHT22;27790;50.840;4.386;2022-09-21T02:43:23;11.80;97.30
39675;DHT22;27790;50.840;4.386;2022-09-21T02:45:55;11.80;97.30
39675;DHT22;27790;50.840;4.386;2022-09-21T02:48:49;11.80;97.40
39675;DHT22;27790;50.840;4.386;2022-09-21T02:51:21;11.80;97.40
39675;DHT22;27790;50.840;4.386;2022-09-21T02:53:51;11.80;97.40
39675;DHT22;27790;50.840;4.386;2022-09-21T02:56:18;11.80;97.60
39675;DHT22;27790;50.840;4.386;2022-09-21T02:58:53;11.80;97.40
39675;DHT22;27790;50.840;4.386;2022-09-21T03:01:20;11.80;97.40
39675;DHT22;27790;50.840;4.386;2022-09-21T03:03:47;11.80;97.40
39675;DHT22;27790;50.840;4.386;2022-09-21T03:06:13;11.80;97.40
39675;DHT22;27790;50.840;4.386;2022-09-21T03:08:38;11.70;97.40
39675;DHT22;27790;50.840;4.386;2022-09-21T03:11:04;11.70;97.40
39675;DHT22;27790;50.840;4.386;2022-09-21T03:13:30;11.70;97.40
39675;DHT22;27790;50.840;4.386;2022-09-21T03:16:01;11.70;97.40
39675;DHT22;27790;50.840;4.386;2022-09-21T03:18:26;11.70;97.40
39675;DHT22;27790;50.840;4.386;2022-09-21T03:20:52;11.70;97.40
39675;DHT22;27790;50.840;4.386;2022-09-21T03:23:17;11.70;97.40
39675;DHT22;27790;50.840;4.386;2022-09-21T03:25:44;11.70;97.40
39675;DHT22;27790;50.840;4.386;2022-09-21T03:28:13;11.70;97.40
39675;DHT22;27790;50.840;4.386;2022-09-21T03:30:40;11.70;97.40
39675;DHT22;27790;50.840;4.386;2022-09-21T03:33:05;11.70;97.40
39675;DHT22;27790;50.840;4.386;2022-09-21T03:35:32;11.70;97.40
39675;DHT22;27790;50.840;4.386;2022-09-21T03:37:59;11.70;97.30
39675;DHT22;27790;50.840;4.386;2022-09-21T03:40:25;11.70;97.30
39675;DHT22;27790;50.840;4.386;2022-09-21T03:42:52;11.60;97.30
39675;DHT22;27790;50.840;4.386;2022-09-21T03:45:18;11.60;97.40
39675;DHT22;27790;50.840;4.386;2022-09-21T03:47:44;11.60;97.30
39675;DHT22;27790;50.840;4.386;2022-09-21T03:50:09;11.60;97.30
39675;DHT22;27790;50.840;4.386;2022-09-21T03:52:35;11.60;97.30
39675;DHT22;27790;50.840;4.386;2022-09-21T03:55:03;11.60;97.30
39675;DHT22;27790;50.840;4.386;2022-09-21T03:57:31;11.60;97.40
39675;DHT22;27790;50.840;4.386;2022-09-21T03:59:57;11.60;97.40
39675;DHT22;27790;50.840;4.386;2022-09-21T04:02:22;11.60;97.40
39675;DHT22;27790;50.840;4.386;2022-09-21T04:04:48;11.60;97.30
39675;DHT22;27790;50.840;4.386;2022-09-21T04:07:13;11.60;97.30
39675;DHT22;27790;50.840;4.386;2022-09-21T04:09:39;11.60;97.30
39675;DHT22;27790;50.840;4.386;2022-09-21T04:12:06;11.60;97.40
39675;DHT22;27790;50.840;4.386;2022-09-21T04:14:32;11.50;97.30
39675;DHT22;27790;50.840;4.386;2022-09-21T04:16:58;11.50;97.30
39675;DHT22;27790;50.840;4.386;2022-09-21T04:19:23;11.50;97.20
39675;DHT22;27790;50.840;4.386;2022-09-21T04:21:49;11.50;97.30
39675;DHT22;27790;50.840;4.386;2022-09-21T04:24:16;11.40;97.30
39675;DHT22;27790;50.840;4.386;2022-09-21T04:26:44;11.50;97.30
39675;DHT22;27790;50.840;4.386;2022-09-21T04:29:11;11.50;97.30
39675;DHT22;27790;50.840;4.386;2022-09-21T04:31:37;11.50;97.30
39675;DHT22;27790;50.840;4.386;2022-09-21T04:34:03;11.50;97.30
39675;DHT22;27790;50.840;4.386;2022-09-21T04:36:29;11.40;97.20
39675;DHT22;27790;50.840;4.386;2022-09-21T04:38:57;11.50;97.20
39675;DHT22;27790;50.840;4.386;2022-09-21T04:41:24;11.50;97.20
39675;DHT22;27790;50.840;4.386;2022-09-21T04:43:50;11.50;97.20
39675;DHT22;27790;50.840;4.386;2022-09-21T04:46:17;11.50;97.10
39675;DHT22;27790;50.840;4.386;2022-09-21T04:48:43;11.50;97.10
39675;DHT22;27790;50.840;4.386;2022-09-21T04:51:10;11.50;97.10
39675;DHT22;27790;50.840;4.386;2022-09-21T04:53:37;11.50;97.00
39675;DHT22;27790;50.840;4.386;2022-09-21T04:56:04;11.50;97.10
39675;DHT22;27790;50.840;4.386;2022-09-21T04:58:31;11.40;97.10
39675;DHT22;27790;50.840;4.386;2022-09-21T05:00:56;11.40;97.20
39675;DHT22;27790;50.840;4.386;2022-09-21T05:03:23;11.40;97.10
39675;DHT22;27790;50.840;4.386;2022-09-21T05:05:51;11.40;97.20
39675;DHT22;27790;50.840;4.386;2022-09-21T05:08:17;11.40;97.20
39675;DHT22;27790;50.840;4.386;2022-09-21T05:11:04;11.40;97.20
39675;DHT22;27790;50.840;4.386;2022-09-21T05:13:29;11.40;97.20
39675;DHT22;27790;50.840;4.386;2022-09-21T05:15:55;11.40;97.30
39675;DHT22;27790;50.840;4.386;2022-09-21T05:18:20;11.40;97.20
39675;DHT22;27790;50.840;4.386;2022-09-21T05:20:53;11.40;97.30
39675;DHT22;27790;50.840;4.386;2022-09-21T05:23:19;11.40;97.30
39675;DHT22;27790;50.840;4.386;2022-09-21T05:25:44;11.40;97.30
39675;DHT22;27790;50.840;4.386;2022-09-21T05:28:10;11.50;97.30
39675;DHT22;27790;50.840;4.386;2022-09-21T05:30:36;11.50;97.30
39675;DHT22;27790;50.840;4.386;2022-09-21T05:33:03;11.50;97.20
39675;DHT22;27790;50.840;4.386;2022-09-21T05:38:13;11.60;97.20
39675;DHT22;27790;50.840;4.386;2022-09-21T05:40:40;11.60;97.00
39675;DHT22;27790;50.840;4.386;2022-09-21T05:43:07;11.60;96.90
39675;DHT22;27790;50.840;4.386;2022-09-21T05:45:33;11.70;96.80
39675;DHT22;27790;50.840;4.386;2022-09-21T05:50:55;11.80;96.80
39675;DHT22;27790;50.840;4.386;2022-09-21T06:04:01;12.00;96.60
39675;DHT22;27790;50.840;4.386;2022-09-21T06:06:27;12.00;96.60
39675;DHT22;27790;50.840;4.386;2022-09-21T06:08:52;12.00;96.70
39675;DHT22;27790;50.840;4.386;2022-09-21T06:11:18;12.10;96.70
39675;DHT22;27790;50.840;4.386;2022-09-21T06:13:44;12.10;96.70
39675;DHT22;27790;50.840;4.386;2022-09-21T06:16:10;12.20;96.60
39675;DHT22;27790;50.840;4.386;2022-09-21T06:18:37;12.20;96.50
39675;DHT22;27790;50.840;4.386;2022-09-21T06:21:03;12.30;96.40
39675;DHT22;27790;50.840;4.386;2022-09-21T06:23:29;12.40;96.30
39675;DHT22;27790;50.840;4.386;2022-09-21T06:25:55;12.50;96.20
39675;DHT22;27790;50.840;4.386;2022-09-21T06:28:20;12.60;96.10
39675;DHT22;27790;50.840;4.386;2022-09-21T06:30:50;12.60;96.00
39675;DHT22;27790;50.840;4.386;2022-09-21T06:33:16;12.70;96.00
39675;DHT22;27790;50.840;4.386;2022-09-21T06:35:56;12.80;95.90
39675;DHT22;27790;50.840;4.386;2022-09-21T06:38:22;12.80;95.80
39675;DHT22;27790;50.840;4.386;2022-09-21T06:40:49;12.90;95.80
39675;DHT22;27790;50.840;4.386;2022-09-21T06:43:14;13.00;95.60
39675;DHT22;27790;50.840;4.386;2022-09-21T06:45:40;13.10;95.60
39675;DHT22;27790;50.840;4.386;2022-09-21T06:48:06;13.20;95.60
39675;DHT22;27790;50.840;4.386;2022-09-21T06:50:32;13.20;95.40
39675;DHT22;27790;50.840;4.386;2022-09-21T06:53:02;13.30;95.60
39675;DHT22;27790;50.840;4.386;2022-09-21T06:55:30;13.40;95.20
39675;DHT22;27790;50.840;4.386;2022-09-21T06:58:01;13.50;95.10
39675;DHT22;27790;50.840;4.386;2022-09-21T07:00:27;13.50;94.80
39675;DHT22;27790;50.840;4.386;2022-09-21T07:02:53;13.60;94.80
39675;DHT22;27790;50.840;4.386;2022-09-21T07:05:18;13.70;94.70
39675;DHT22;27790;50.840;4.386;2022-09-21T07:07:44;13.70;94.40
39675;DHT22;27790;50.840;4.386;2022-09-21T07:10:09;13.80;94.30
39675;DHT22;27790;50.840;4.386;2022-09-21T07:12:35;13.90;94.00
39675;DHT22;27790;50.840;4.386;2022-09-21T07:15:03;14.10;93.90
39675;DHT22;27790;50.840;4.386;2022-09-21T07:17:34;14.40;93.80
39675;DHT22;27790;50.840;4.386;2022-09-21T07:20:00;15.00;93.60
39675;DHT22;27790;50.840;4.386;2022-09-21T07:22:29;15.60;92.60
39675;DHT22;27790;50.840;4.386;2022-09-21T07:24:55;16.20;91.00
39675;DHT22;27790;50.840;4.386;2022-09-21T07:27:23;16.80;89.60
39675;DHT22;27790;50.840;4.386;2022-09-21T07:29:49;17.30;88.70
39675;DHT22;27790;50.840;4.386;2022-09-21T07:32:14;17.90;87.30
39675;DHT22;27790;50.840;4.386;2022-09-21T07:34:40;18.40;84.40
39675;DHT22;27790;50.840;4.386;2022-09-21T07:37:05;19.10;82.00
39675;DHT22;27790;50.840;4.386;2022-09-21T07:39:31;19.70;79.80
39675;DHT22;27790;50.840;4.386;2022-09-21T07:41:56;20.30;77.80
39675;DHT22;27790;50.840;4.386;2022-09-21T07:44:25;20.70;76.30
39675;DHT22;27790;50.840;4.386;2022-09-21T07:46:51;21.20;73.60
39675;DHT22;27790;50.840;4.386;2022-09-21T07:49:16;21.30;72.60
39675;DHT22;27790;50.840;4.386;2022-09-21T07:51:42;21.50;72.30
39675;DHT22;27790;50.840;4.386;2022-09-21T07:54:09;21.80;71.80
39675;DHT22;27790;50.840;4.386;2022-09-21T07:56:38;22.10;70.50
39675;DHT22;27790;50.840;4.386;2022-09-21T07:59:06;22.10;69.30
39675;DHT22;27790;50.840;4.386;2022-09-21T08:01:37;22.10;69.20
39675;DHT22;27790;50.840;4.386;2022-09-21T08:04:05;22.30;68.50
39675;DHT22;27790;50.840;4.386;2022-09-21T08:06:32;22.60;68.10
39675;DHT22;27790;50.840;4.386;2022-09-21T08:09:00;22.90;68.00
39675;DHT22;27790;50.840;4.386;2022-09-21T08:11:27;22.90;68.00
39675;DHT22;27790;50.840;4.386;2022-09-21T08:13:57;23.10;67.70
39675;DHT22;27790;50.840;4.386;2022-09-21T08:16:24;23.10;66.10
39675;DHT22;27790;50.840;4.386;2022-09-21T08:18:50;23.10;65.70
39675;DHT22;27790;50.840;4.386;2022-09-21T08:21:16;23.20;65.30
39675;DHT22;27790;50.840;4.386;2022-09-21T08:23:42;23.10;64.90
39675;DHT22;27790;50.840;4.386;2022-09-21T08:26:10;22.70;65.10
39675;DHT22;27790;50.840;4.386;2022-09-21T08:28:38;22.70;64.60
39675;DHT22;27790;50.840;4.386;2022-09-21T08:31:06;22.90;64.70
39675;DHT22;27790;50.840;4.386;2022-09-21T08:33:35;23.10;64.30
39675;DHT22;27790;50.840;4.386;2022-09-21T08:36:01;23.10;64.30
39675;DHT22;27790;50.840;4.386;2022-09-21T08:38:35;23.10;64.00
39675;DHT22;27790;50.840;4.386;2022-09-21T08:41:02;23.20;63.90
39675;DHT22;27790;50.840;4.386;2022-09-21T08:43:42;23.40;63.20
39675;DHT22;27790;50.840;4.386;2022-09-21T08:46:31;23.50;63.60
39675;DHT22;27790;50.840;4.386;2022-09-21T08:49:06;23.50;62.30
39675;DHT22;27790;50.840;4.386;2022-09-21T08:51:37;23.60;62.60
39675;DHT22;27790;50.840;4.386;2022-09-21T08:54:16;23.70;62.20
39675;DHT22;27790;50.840;4.386;2022-09-21T08:56:44;23.60;61.20
39675;DHT22;27790;50.840;4.386;2022-09-21T08:59:12;23.00;62.10
39675;DHT22;27790;50.840;4.386;2022-09-21T09:17:35;18.90;71.20
39675;DHT22;27790;50.840;4.386;2022-09-21T09:20:10;18.50;72.60
39675;DHT22;27790;50.840;4.386;2022-09-21T09:25:40;17.80;74.20
39675;DHT22;27790;50.840;4.386;2022-09-21T09:31:10;17.50;74.80
39675;DHT22;27790;50.840;4.386;2022-09-21T09:36:19;17.20;80.40
39675;DHT22;27790;50.840;4.386;2022-09-21T09:38:54;17.10;79.30
39675;DHT22;27790;50.840;4.386;2022-09-21T09:49:07;17.10;77.50
39675;DHT22;27790;50.840;4.386;2022-09-21T09:51:38;17.10;79.20
39675;DHT22;27790;50.840;4.386;2022-09-21T09:54:07;17.20;77.90
39675;DHT22;27790;50.840;4.386;2022-09-21T09:56:37;17.40;79.00
39675;DHT22;27790;50.840;4.386;2022-09-21T09:59:04;17.60;76.60
39675;DHT22;27790;50.840;4.386;2022-09-21T10:04:08;17.40;76.70
39675;DHT22;27790;50.840;4.386;2022-09-21T10:06:34;17.30;76.20
39675;DHT22;27790;50.840;4.386;2022-09-21T10:09:00;17.30;75.30
39675;DHT22;27790;50.840;4.386;2022-09-21T10:11:45;17.50;73.90
39675;DHT22;27790;50.840;4.386;2022-09-21T10:14:20;17.60;75.40
39675;DHT22;27790;50.840;4.386;2022-09-21T10:16:48;17.60;74.40
39675;DHT22;27790;50.840;4.386;2022-09-21T10:19:24;17.60;74.20
39675;DHT22;27790;50.840;4.386;2022-09-21T10:21:59;17.70;73.20
39675;DHT22;27790;50.840;4.386;2022-09-21T10:24:33;17.80;73.60
39675;DHT22;27790;50.840;4.386;2022-09-21T10:27:15;17.90;73.40
39675;DHT22;27790;50.840;4.386;2022-09-21T10:29:46;17.80;73.00
39675;DHT22;27790;50.840;4.386;2022-09-21T10:34:38;17.60;74.30
39675;DHT22;27790;50.840;4.386;2022-09-21T10:39:54;17.50;73.30
39675;DHT22;27790;50.840;4.386;2022-09-21T10:42:21;17.30;73.30
39675;DHT22;27790;50.840;4.386;2022-09-21T10:44:49;17.40;73.00
39675;DHT22;27790;50.840;4.386;2022-09-21T10:47:20;17.40;72.10
39675;DHT22;27790;50.840;4.386;2022-09-21T10:49:53;17.40;73.40
39675;DHT22;27790;50.840;4.386;2022-09-21T10:52:23;17.40;73.20
39675;DHT22;27790;50.840;4.386;2022-09-21T10:54:50;17.40;73.30
39675;DHT22;27790;50.840;4.386;2022-09-21T10:57:21;17.50;72.50
39675;DHT22;27790;50.840;4.386;2022-09-21T10:59:48;17.70;72.00
39675;DHT22;27790;50.840;4.386;2022-09-21T11:02:26;17.70;71.20
39675;DHT22;27790;50.840;4.386;2022-09-21T11:07:42;18.00;71.90
39675;DHT22;27790;50.840;4.386;2022-09-21T11:10:23;18.10;71.20
39675;DHT22;27790;50.840;4.386;2022-09-21T11:13:02;18.10;70.20
39675;DHT22;27790;50.840;4.386;2022-09-21T11:15:39;18.00;69.40
39675;DHT22;27790;50.840;4.386;2022-09-21T11:20:54;18.00;67.80
39675;DHT22;27790;50.840;4.386;2022-09-21T11:44:05;18.10;68.30
39675;DHT22;27790;50.840;4.386;2022-09-21T11:49:27;18.00;67.70
39675;DHT22;27790;50.840;4.386;2022-09-21T12:07:37;18.00;66.30
39675;DHT22;27790;50.840;4.386;2022-09-21T12:13:17;18.10;67.70
39675;DHT22;27790;50.840;4.386;2022-09-21T12:18:18;18.10;68.90
39675;DHT22;27790;50.840;4.386;2022-09-21T12:26:04;18.10;66.90
39675;DHT22;27790;50.840;4.386;2022-09-21T12:28:43;18.20;65.30
39675;DHT22;27790;50.840;4.386;2022-09-21T12:31:23;18.30;66.60
39675;DHT22;27790;50.840;4.386;2022-09-21T12:34:13;18.40;67.50
39675;DHT22;27790;50.840;4.386;2022-09-21T12:36:42;18.50;66.90
39675;DHT22;27790;50.840;4.386;2022-09-21T12:39:23;18.50;66.70
39675;DHT22;27790;50.840;4.386;2022-09-21T12:41:59;18.50;66.50
39675;DHT22;27790;50.840;4.386;2022-09-21T12:47:05;18.50;68.10
39675;DHT22;27790;50.840;4.386;2022-09-21T12:49:42;18.40;66.80
39675;DHT22;27790;50.840;4.386;2022-09-21T12:52:14;18.50;67.40
39675;DHT22;27790;50.840;4.386;2022-09-21T13:00:20;18.70;65.50
39675;DHT22;27790;50.840;4.386;2022-09-21T13:03:02;18.70;64.40
39675;DHT22;27790;50.840;4.386;2022-09-21T13:05:48;18.90;65.20
39675;DHT22;27790;50.840;4.386;2022-09-21T13:08:18;19.10;66.10
39675;DHT22;27790;50.840;4.386;2022-09-21T13:16:01;19.10;63.00
39675;DHT22;27790;50.840;4.386;2022-09-21T13:18:31;19.00;61.70
39675;DHT22;27790;50.840;4.386;2022-09-21T13:21:01;18.90;62.90
39675;DHT22;27790;50.840;4.386;2022-09-21T13:23:39;18.70;63.40
39675;DHT22;27790;50.840;4.386;2022-09-21T13:26:08;18.40;64.80
39675;DHT22;27790;50.840;4.386;2022-09-21T13:31:30;18.30;64.90
39675;DHT22;27790;50.840;4.386;2022-09-21T13:34:15;18.40;65.80
39675;DHT22;27790;50.840;4.386;2022-09-21T13:36:42;18.30;66.70
39675;DHT22;27790;50.840;4.386;2022-09-21T13:41:34;18.30;66.70
39675;DHT22;27790;50.840;4.386;2022-09-21T13:44:12;18.30;67.50
39675;DHT22;27790;50.840;4.386;2022-09-21T13:54:47;18.30;66.30
39675;DHT22;27790;50.840;4.386;2022-09-21T14:02:34;18.30;67.30
39675;DHT22;27790;50.840;4.386;2022-09-21T14:10:36;18.10;69.40
39675;DHT22;27790;50.840;4.386;2022-09-21T14:13:20;18.10;68.40
39675;DHT22;27790;50.840;4.386;2022-09-21T14:15:47;18.10;67.90
39675;DHT22;27790;50.840;4.386;2022-09-21T14:23:30;17.90;68.00
39675;DHT22;27790;50.840;4.386;2022-09-21T14:26:00;18.00;67.90
39675;DHT22;27790;50.840;4.386;2022-09-21T14:31:17;17.90;67.90
39675;DHT22;27790;50.840;4.386;2022-09-21T14:33:51;17.90;68.10
39675;DHT22;27790;50.840;4.386;2022-09-21T14:36:21;18.00;68.00
39675;DHT22;27790;50.840;4.386;2022-09-21T14:38:54;18.00;68.30
39675;DHT22;27790;50.840;4.386;2022-09-21T14:41:24;18.10;68.90
39675;DHT22;27790;50.840;4.386;2022-09-21T14:43:54;18.20;69.40
39675;DHT22;27790;50.840;4.386;2022-09-21T14:57:07;18.40;65.80
39675;DHT22;27790;50.840;4.386;2022-09-21T15:02:26;18.90;63.40
39675;DHT22;27790;50.840;4.386;2022-09-21T15:05:04;19.00;62.50
39675;DHT22;27790;50.840;4.386;2022-09-21T15:10:35;19.20;62.60
39675;DHT22;27790;50.840;4.386;2022-09-21T15:18:40;19.60;63.00
39675;DHT22;27790;50.840;4.386;2022-09-21T15:21:22;19.70;61.60
39675;DHT22;27790;50.840;4.386;2022-09-21T15:23:50;19.70;62.20
39675;DHT22;27790;50.840;4.386;2022-09-21T15:26:21;19.70;63.00
39675;DHT22;27790;50.840;4.386;2022-09-21T15:28:52;19.60;62.60
39675;DHT22;27790;50.840;4.386;2022-09-21T15:31:18;19.60;62.60
39675;DHT22;27790;50.840;4.386;2022-09-21T15:33:45;19.80;62.40
39675;DHT22;27790;50.840;4.386;2022-09-21T15:36:19;19.80;61.30
39675;DHT22;27790;50.840;4.386;2022-09-21T15:38:47;19.70;61.40
39675;DHT22;27790;50.840;4.386;2022-09-21T15:44:12;19.30;63.00
39675;DHT22;27790;50.840;4.386;2022-09-21T15:46:40;19.10;63.70
39675;DHT22;27790;50.840;4.386;2022-09-21T15:49:15;19.10;64.40
39675;DHT22;27790;50.840;4.386;2022-09-21T15:51:45;19.00;64.00
39675;DHT22;27790;50.840;4.386;2022-09-21T15:57:05;18.80;65.00
39675;DHT22;27790;50.840;4.386;2022-09-21T15:59:46;18.60;65.00
39675;DHT22;27790;50.840;4.386;2022-09-21T16:02:18;18.40;65.70
39675;DHT22;27790;50.840;4.386;2022-09-21T16:04:46;18.30;65.10
39675;DHT22;27790;50.840;4.386;2022-09-21T16:07:31;18.20;64.70
39675;DHT22;27790;50.840;4.386;2022-09-21T16:09:58;18.10;64.50
39675;DHT22;27790;50.840;4.386;2022-09-21T16:12:37;17.90;64.00
39675;DHT22;27790;50.840;4.386;2022-09-21T16:18:01;17.80;65.20
39675;DHT22;27790;50.840;4.386;2022-09-21T16:20:37;17.80;65.90
39675;DHT22;27790;50.840;4.386;2022-09-21T16:23:05;17.80;65.30
39675;DHT22;27790;50.840;4.386;2022-09-21T16:25:36;17.70;65.70
39675;DHT22;27790;50.840;4.386;2022-09-21T16:28:25;17.70;64.70
39675;DHT22;27790;50.840;4.386;2022-09-21T16:30:54;17.70;65.10
39675;DHT22;27790;50.840;4.386;2022-09-21T16:38:40;17.60;65.00
39675;DHT22;27790;50.840;4.386;2022-09-21T16:41:07;17.60;65.10
39675;DHT22;27790;50.840;4.386;2022-09-21T16:43:34;17.60;65.30
39675;DHT22;27790;50.840;4.386;2022-09-21T16:46:00;17.60;65.10
39675;DHT22;27790;50.840;4.386;2022-09-21T16:48:27;17.50;65.40
39675;DHT22;27790;50.840;4.386;2022-09-21T16:50:52;17.50;65.60
39675;DHT22;27790;50.840;4.386;2022-09-21T16:53:18;17.50;65.80
39675;DHT22;27790;50.840;4.386;2022-09-21T16:55:48;17.40;66.50
39675;DHT22;27790;50.840;4.386;2022-09-21T16:58:13;17.30;66.60
39675;DHT22;27790;50.840;4.386;2022-09-21T17:00:40;17.30;67.00
39675;DHT22;27790;50.840;4.386;2022-09-21T17:03:06;17.30;67.40
39675;DHT22;27790;50.840;4.386;2022-09-21T17:05:31;17.20;67.80
39675;DHT22;27790;50.840;4.386;2022-09-21T17:07:58;17.10;67.80
39675;DHT22;27790;50.840;4.386;2022-09-21T17:10:27;17.10;68.50
39675;DHT22;27790;50.840;4.386;2022-09-21T17:12:55;17.10;68.60
39675;DHT22;27790;50.840;4.386;2022-09-21T17:15:21;17.10;69.00
39675;DHT22;27790;50.840;4.386;2022-09-21T17:17:48;17.00;69.80
39675;DHT22;27790;50.840;4.386;2022-09-21T17:22:55;16.90;69.70
39675;DHT22;27790;50.840;4.386;2022-09-21T17:25:20;16.90;70.00
39675;DHT22;27790;50.840;4.386;2022-09-21T17:27:46;16.90;70.40
39675;DHT22;27790;50.840;4.386;2022-09-21T17:30:12;16.90;70.60
39675;DHT22;27790;50.840;4.386;2022-09-21T17:32:39;16.80;70.70
39675;DHT22;27790;50.840;4.386;2022-09-21T17:35:20;16.80;71.00
39675;DHT22;27790;50.840;4.386;2022-09-21T17:37:46;16.70;71.00
39675;DHT22;27790;50.840;4.386;2022-09-21T17:40:13;16.70;71.20
39675;DHT22;27790;50.840;4.386;2022-09-21T17:42:40;16.70;71.60
39675;DHT22;27790;50.840;4.386;2022-09-21T17:47:54;16.60;71.90
39675;DHT22;27790;50.840;4.386;2022-09-21T17:50:25;16.50;72.70
39675;DHT22;27790;50.840;4.386;2022-09-21T17:52:52;16.50;72.20
39675;DHT22;27790;50.840;4.386;2022-09-21T17:55:29;16.50;72.30
39675;DHT22;27790;50.840;4.386;2022-09-21T18:03:22;16.30;72.70
39675;DHT22;27790;50.840;4.386;2022-09-21T18:05:50;16.30;73.10
39675;DHT22;27790;50.840;4.386;2022-09-21T18:08:18;16.20;73.90
39675;DHT22;27790;50.840;4.386;2022-09-21T18:13:43;16.10;73.00
39675;DHT22;27790;50.840;4.386;2022-09-21T18:21:23;16.20;73.70
39675;DHT22;27790;50.840;4.386;2022-09-21T18:24:15;16.10;73.80
39675;DHT22;27790;50.840;4.386;2022-09-21T18:26:43;16.00;74.10
39675;DHT22;27790;50.840;4.386;2022-09-21T18:45:35;15.90;76.00
39675;DHT22;27790;50.840;4.386;2022-09-21T18:50:46;15.90;76.40
39675;DHT22;27790;50.840;4.386;2022-09-21T18:55:48;15.80;76.80
39675;DHT22;27790;50.840;4.386;2022-09-21T18:58:14;15.80;77.10
39675;DHT22;27790;50.840;4.386;2022-09-21T19:00:40;15.80;77.20
39675;DHT22;27790;50.840;4.386;2022-09-21T19:03:11;15.80;78.10
39675;DHT22;27790;50.840;4.386;2022-09-21T19:05:42;15.70;78.10
39675;DHT22;27790;50.840;4.386;2022-09-21T19:21:57;15.30;80.60
39675;DHT22;27790;50.840;4.386;2022-09-21T19:24:34;15.20;81.30
39675;DHT22;27790;50.840;4.386;2022-09-21T19:30:10;15.20;82.00
39675;DHT22;27790;50.840;4.386;2022-09-21T19:37:51;15.00;83.50
39675;DHT22;27790;50.840;4.386;2022-09-21T19:40:19;14.90;83.90
39675;DHT22;27790;50.840;4.386;2022-09-21T19:42:57;14.90;84.30
39675;DHT22;27790;50.840;4.386;2022-09-21T19:45:43;14.90;85.20
39675;DHT22;27790;50.840;4.386;2022-09-21T19:48:16;14.80;85.40
39675;DHT22;27790;50.840;4.386;2022-09-21T19:50:54;14.80;85.40
39675;DHT22;27790;50.840;4.386;2022-09-21T19:53:22;14.80;85.40
39675;DHT22;27790;50.840;4.386;2022-09-21T19:56:00;14.70;86.30
39675;DHT22;27790;50.840;4.386;2022-09-21T19:58:37;14.70;86.30
39675;DHT22;27790;50.840;4.386;2022-09-21T20:01:16;14.60;86.30
39675;DHT22;27790;50.840;4.386;2022-09-21T20:03:44;14.60;86.50
39675;DHT22;27790;50.840;4.386;2022-09-21T20:08:57;14.60;87.50
39675;DHT22;27790;50.840;4.386;2022-09-21T20:16:54;14.40;88.20
39675;DHT22;27790;50.840;4.386;2022-09-21T20:22:10;14.40;88.00
39675;DHT22;27790;50.840;4.386;2022-09-21T20:27:21;14.30;88.60
39675;DHT22;27790;50.840;4.386;2022-09-21T20:29:47;14.30;88.60
39675;DHT22;27790;50.840;4.386;2022-09-21T20:32:13;14.20;89.00
39675;DHT22;27790;50.840;4.386;2022-09-21T20:34:39;14.20;89.30
39675;DHT22;27790;50.840;4.386;2022-09-21T20:37:10;14.20;89.60
39675;DHT22;27790;50.840;4.386;2022-09-21T20:39:36;14.10;89.90
39675;DHT22;27790;50.840;4.386;2022-09-21T20:42:02;14.10;90.10
39675;DHT22;27790;50.840;4.386;2022-09-21T20:44:31;14.00;90.10
39675;DHT22;27790;50.840;4.386;2022-09-21T20:46:57;14.00;90.10
39675;DHT22;27790;50.840;4.386;2022-09-21T20:49:22;14.00;90.20